createdAt,value
2018-10-21T00:00:41.941Z,31.70
2018-10-21T00:03:10.587Z,35.20
2018-10-21T00:05:38.878Z,34.53
2018-10-21T00:08:07.228Z,33.40
2018-10-21T00:10:35.545Z,29.45
2018-10-21T00:13:03.870Z,31.48
2018-10-21T00:15:32.275Z,33.33
2018-10-21T00:18:00.426Z,31.17
2018-10-21T00:20:28.738Z,30.82
2018-10-21T00:22:57.080Z,30.40
2018-10-21T00:25:25.332Z,32.05
2018-10-21T00:27:53.578Z,32.05
2018-10-21T00:30:21.858Z,35.40
2018-10-21T00:32:51.469Z,30.85
2018-10-21T00:35:19.798Z,36.68
2018-10-21T00:37:48.134Z,30.50
2018-10-21T00:40:16.417Z,32.13
2018-10-21T00:42:44.698Z,33.65
2018-10-21T00:45:12.993Z,34.88
2018-10-21T00:47:41.226Z,36.23
2018-10-21T00:50:10.586Z,37.67
2018-10-21T00:52:39.006Z,31.60
2018-10-21T00:55:08.368Z,33.02
2018-10-21T00:57:36.674Z,33.20
2018-10-21T01:00:07.090Z,33.02
2018-10-21T01:02:35.374Z,31.70
2018-10-21T01:05:03.797Z,33.50
2018-10-21T01:07:32.071Z,32.78
2018-10-21T01:10:00.369Z,33.70
2018-10-21T01:12:28.622Z,34.60
2018-10-21T01:14:57.178Z,29.02
2018-10-21T01:17:25.412Z,36.00
2018-10-21T01:19:53.880Z,31.37
2018-10-21T01:22:22.279Z,30.60
2018-10-21T01:24:50.585Z,31.27
2018-10-21T01:27:18.831Z,34.03
2018-10-21T01:29:47.821Z,31.30
2018-10-21T01:32:17.509Z,30.88
2018-10-21T01:34:46.013Z,31.00
2018-10-21T01:37:14.642Z,32.03
2018-10-21T01:40:52.965Z,33.10
2018-10-21T01:43:22.457Z,28.00
2018-10-21T01:45:50.734Z,30.50
2018-10-21T01:48:20.233Z,32.10
2018-10-21T01:50:48.555Z,32.70
2018-10-21T01:53:17.532Z,31.52
2018-10-21T01:55:45.781Z,27.93
2018-10-21T01:58:14.017Z,28.17
2018-10-21T02:00:42.715Z,31.65
2018-10-21T02:03:11.066Z,26.12
2018-10-21T02:05:39.753Z,28.38
2018-10-21T02:08:08.094Z,28.25
2018-10-21T02:10:36.516Z,33.73
2018-10-21T02:13:04.850Z,29.37
2018-10-21T02:15:33.132Z,29.80
2018-10-21T02:18:01.415Z,31.12
2018-10-21T02:20:29.741Z,28.85
2018-10-21T02:22:57.951Z,30.45
2018-10-21T02:25:26.206Z,28.90
2018-10-21T02:27:54.801Z,31.45
2018-10-21T02:30:26.250Z,37.45
2018-10-21T02:32:54.875Z,30.30
2018-10-21T02:35:23.343Z,29.82
2018-10-21T02:37:52.394Z,31.52
2018-10-21T02:41:34.848Z,29.20
2018-10-21T02:44:03.616Z,30.65
2018-10-21T02:46:32.313Z,31.20
2018-10-21T02:49:01.052Z,28.60
2018-10-21T02:51:29.294Z,25.43
2018-10-21T02:53:57.561Z,30.88
2018-10-21T02:56:25.782Z,28.02
2018-10-21T02:58:54.133Z,27.42
2018-10-21T03:01:22.476Z,30.30
2018-10-21T03:03:50.837Z,28.50
2018-10-21T03:06:19.290Z,24.72
2018-10-21T03:08:47.575Z,32.83
2018-10-21T03:11:15.876Z,31.35
2018-10-21T03:13:44.333Z,25.10
2018-10-21T03:16:12.632Z,27.90
2018-10-21T03:18:40.983Z,23.92
2018-10-21T03:21:09.327Z,32.33
2018-10-21T03:23:37.534Z,25.20
2018-10-21T03:26:05.835Z,30.62
2018-10-21T03:28:34.459Z,26.25
2018-10-21T03:31:02.907Z,32.80
2018-10-21T03:33:31.721Z,29.87
2018-10-21T03:35:59.977Z,32.10
2018-10-21T03:38:28.360Z,26.68
2018-10-21T03:40:56.635Z,26.68
2018-10-21T03:43:24.858Z,28.70
2018-10-21T03:45:53.200Z,30.97
2018-10-21T03:48:21.435Z,31.82
2018-10-21T03:50:49.748Z,31.65
2018-10-21T03:53:17.958Z,29.85
2018-10-21T03:55:46.214Z,29.57
2018-10-21T03:58:14.576Z,27.80
2018-10-21T04:00:42.767Z,32.40
2018-10-21T04:03:11.015Z,32.78
2018-10-21T04:05:39.293Z,30.00
2018-10-21T04:08:07.599Z,31.42
2018-10-21T04:10:35.949Z,34.78
2018-10-21T04:13:04.373Z,31.57
2018-10-21T04:15:32.645Z,31.90
2018-10-21T04:18:01.030Z,28.83
2018-10-21T04:20:29.282Z,31.80
2018-10-21T04:23:01.718Z,33.65
2018-10-21T04:25:31.333Z,29.00
2018-10-21T04:28:00.451Z,32.65
2018-10-21T04:30:30.786Z,35.38
2018-10-21T04:34:03.150Z,30.40
2018-10-21T04:36:32.752Z,33.83
2018-10-21T04:40:12.499Z,30.12
2018-10-21T04:42:40.694Z,31.35
2018-10-21T04:45:09.717Z,29.45
2018-10-21T04:47:38.037Z,31.35
2018-10-21T04:50:07.630Z,31.80
2018-10-21T04:52:36.096Z,34.75
2018-10-21T04:55:06.961Z,28.85
2018-10-21T04:57:36.309Z,31.07
2018-10-21T05:00:06.710Z,33.85
2018-10-21T05:02:34.971Z,27.70
2018-10-21T05:05:03.231Z,29.87
2018-10-21T05:07:31.588Z,30.82
2018-10-21T05:09:59.823Z,32.08
2018-10-21T05:12:28.036Z,41.18
2018-10-21T05:14:56.349Z,29.95
2018-10-21T05:17:24.592Z,33.92
2018-10-21T05:19:52.910Z,31.68
2018-10-21T05:22:21.215Z,29.67
2018-10-21T05:24:49.487Z,28.60
2018-10-21T05:27:17.781Z,35.92
2018-10-21T05:29:46.099Z,30.30
2018-10-21T05:32:14.450Z,32.53
2018-10-21T05:34:42.791Z,30.68
2018-10-21T05:37:11.009Z,32.20
2018-10-21T05:39:39.232Z,35.75
2018-10-21T05:42:07.574Z,34.80
2018-10-21T05:44:35.886Z,30.80
2018-10-21T05:47:04.158Z,31.37
2018-10-21T05:49:32.567Z,32.15
2018-10-21T05:52:00.807Z,39.03
2018-10-21T05:54:29.133Z,33.80
2018-10-21T05:56:57.461Z,34.80
2018-10-21T05:59:25.702Z,34.83
2018-10-21T06:01:53.999Z,37.53
2018-10-21T06:04:22.265Z,40.92
2018-10-21T06:06:50.612Z,35.68
2018-10-21T06:09:18.890Z,33.53
2018-10-21T06:11:47.126Z,39.13
2018-10-21T06:14:15.450Z,35.60
2018-10-21T06:16:46.986Z,34.15
2018-10-21T06:19:53.823Z,35.60
2018-10-21T06:22:22.178Z,37.60
2018-10-21T06:24:51.207Z,38.73
2018-10-21T06:27:19.555Z,34.05
2018-10-21T06:29:47.871Z,32.83
2018-10-21T06:32:16.165Z,34.95
2018-10-21T06:34:44.442Z,31.60
2018-10-21T06:37:12.669Z,40.67
2018-10-21T06:39:40.903Z,35.00
2018-10-21T06:42:09.143Z,33.00
2018-10-21T06:44:37.485Z,36.48
2018-10-21T06:47:05.843Z,34.88
2018-10-21T06:49:34.090Z,38.23
2018-10-21T06:52:02.444Z,34.00
2018-10-21T06:54:30.766Z,34.90
2018-10-21T06:56:59.177Z,33.02
2018-10-21T06:59:27.366Z,37.65
2018-10-21T07:01:55.593Z,30.82
2018-10-21T07:04:23.892Z,30.92
2018-10-21T07:06:52.165Z,34.08
2018-10-21T07:09:20.394Z,31.17
2018-10-21T07:11:48.773Z,37.00
2018-10-21T07:14:17.029Z,31.52
2018-10-21T07:16:45.342Z,37.08
2018-10-21T07:19:13.633Z,28.87
2018-10-21T07:21:41.881Z,32.08
2018-10-21T07:24:10.142Z,30.55
2018-10-21T07:26:38.515Z,33.48
2018-10-21T07:29:06.774Z,26.87
2018-10-21T07:31:35.038Z,33.23
2018-10-21T07:34:03.399Z,33.00
2018-10-21T07:36:31.727Z,26.48
2018-10-21T07:38:59.941Z,26.80
2018-10-21T07:41:28.236Z,28.05
2018-10-21T07:43:56.523Z,31.75
2018-10-21T07:46:24.778Z,26.95
2018-10-21T07:48:53.275Z,28.52
2018-10-21T07:51:21.478Z,23.07
2018-10-21T07:53:49.834Z,26.05
2018-10-21T07:56:18.152Z,29.95
2018-10-21T07:58:46.415Z,29.15
2018-10-21T08:01:15.292Z,23.02
2018-10-21T08:03:43.915Z,24.90
2018-10-21T08:06:29.138Z,32.35
2018-10-21T08:08:57.495Z,30.02
2018-10-21T08:11:25.885Z,21.65
2018-10-21T08:13:54.197Z,24.82
2018-10-21T08:16:22.743Z,22.37
2018-10-21T08:18:51.590Z,21.87
2018-10-21T08:21:19.983Z,22.98
2018-10-21T08:23:48.225Z,25.72
2018-10-21T08:26:16.622Z,26.07
2018-10-21T08:28:46.645Z,24.67
2018-10-21T08:31:15.177Z,28.07
2018-10-21T08:33:43.506Z,23.52
2018-10-21T08:36:11.835Z,25.12
2018-10-21T08:38:40.194Z,27.30
2018-10-21T08:41:08.526Z,25.30
2018-10-21T08:43:36.866Z,23.65
2018-10-21T08:46:05.302Z,28.30
2018-10-21T08:48:33.631Z,28.80
2018-10-21T08:51:02.057Z,25.52
2018-10-21T08:53:30.361Z,30.17
2018-10-21T08:55:58.645Z,24.70
2018-10-21T08:58:26.919Z,23.92
2018-10-21T09:00:55.201Z,27.80
2018-10-21T09:03:23.449Z,27.25
2018-10-21T09:05:51.732Z,27.60
2018-10-21T09:08:20.068Z,29.75
2018-10-21T09:10:48.448Z,29.45
2018-10-21T09:13:16.737Z,27.17
2018-10-21T09:15:44.979Z,29.20
2018-10-21T09:18:13.270Z,23.35
2018-10-21T09:20:41.534Z,23.85
2018-10-21T09:23:09.871Z,25.95
2018-10-21T09:25:38.193Z,34.45
2018-10-21T09:28:06.635Z,24.53
2018-10-21T09:30:34.854Z,25.15
2018-10-21T09:33:03.148Z,30.68
2018-10-21T09:35:31.511Z,26.10
2018-10-21T09:37:59.886Z,33.63
2018-10-21T09:40:28.186Z,27.17
2018-10-21T09:42:56.505Z,28.77
2018-10-21T09:45:24.826Z,25.32
2018-10-21T09:47:53.125Z,26.65
2018-10-21T09:50:21.459Z,23.60
2018-10-21T09:52:49.770Z,26.50
2018-10-21T09:55:20.122Z,29.93
2018-10-21T09:57:49.485Z,26.87
2018-10-21T10:00:23.186Z,25.10
2018-10-21T10:02:56.995Z,25.90
2018-10-21T10:05:25.427Z,25.60
2018-10-21T10:07:54.564Z,30.00
2018-10-21T10:10:23.082Z,24.70
2018-10-21T10:12:51.354Z,24.57
2018-10-21T10:15:19.733Z,25.07
2018-10-21T10:17:48.243Z,21.77
2018-10-21T10:20:16.502Z,27.33
2018-10-21T10:22:44.837Z,24.53
2018-10-21T10:25:13.240Z,21.20
2018-10-21T10:27:41.816Z,23.70
2018-10-21T10:30:11.366Z,23.57
2018-10-21T10:32:40.965Z,23.77
2018-10-21T10:35:10.193Z,27.97
2018-10-21T10:37:38.490Z,25.23
2018-10-21T10:40:08.027Z,26.87
2018-10-21T10:42:36.285Z,25.47
2018-10-21T10:45:04.806Z,28.63
2018-10-21T10:47:33.110Z,26.93
2018-10-21T10:50:01.366Z,28.00
2018-10-21T10:52:29.619Z,25.03
2018-10-21T10:54:57.961Z,32.67
2018-10-21T10:57:26.260Z,29.63
2018-10-21T10:59:54.732Z,26.10
2018-10-21T11:02:22.866Z,26.83
2018-10-21T11:04:51.178Z,32.63
2018-10-21T11:07:19.530Z,28.60
2018-10-21T11:09:47.964Z,28.27
2018-10-21T11:12:16.275Z,25.60
2018-10-21T11:14:44.714Z,28.77
2018-10-21T11:17:13.002Z,31.53
2018-10-21T11:19:41.346Z,29.67
2018-10-21T11:22:09.664Z,35.07
2018-10-21T11:24:43.535Z,30.33
2018-10-21T11:27:11.853Z,28.37
2018-10-21T11:29:40.329Z,29.93
2018-10-21T11:32:08.716Z,28.30
2018-10-21T11:34:37.407Z,34.20
2018-10-21T11:37:05.781Z,32.00
2018-10-21T11:39:34.048Z,31.50
2018-10-21T11:42:02.357Z,30.60
2018-10-21T11:44:30.689Z,32.50
2018-10-21T11:46:58.954Z,34.80
2018-10-21T11:49:27.268Z,26.40
2018-10-21T11:51:55.782Z,34.53
2018-10-21T11:54:24.343Z,31.17
2018-10-21T11:56:52.617Z,26.87
2018-10-21T11:59:20.895Z,30.90
2018-10-21T12:01:49.155Z,28.13
2018-10-21T12:04:17.469Z,33.83
2018-10-21T12:06:45.862Z,28.50
2018-10-21T12:09:14.738Z,30.57
2018-10-21T12:11:43.122Z,33.50
2018-10-21T12:14:11.541Z,39.40
2018-10-21T12:16:39.911Z,30.63
2018-10-21T12:19:08.279Z,30.33
2018-10-21T12:21:36.777Z,30.47
2018-10-21T12:24:05.490Z,32.73
2018-10-21T12:26:34.930Z,31.43
2018-10-21T12:29:04.062Z,27.87
2018-10-21T12:31:32.342Z,37.53
2018-10-21T12:34:00.696Z,31.10
2018-10-21T12:36:28.966Z,27.27
2018-10-21T12:38:57.229Z,29.03
2018-10-21T12:41:25.537Z,31.80
2018-10-21T12:43:53.830Z,32.13
2018-10-21T12:46:22.258Z,33.73
2018-10-21T12:48:50.597Z,27.23
2018-10-21T12:51:18.868Z,30.30
2018-10-21T12:53:47.137Z,26.80
2018-10-21T12:56:15.395Z,29.60
2018-10-21T12:58:43.720Z,28.00
2018-10-21T13:01:12.015Z,27.47
2018-10-21T13:03:40.247Z,27.87
2018-10-21T13:06:08.578Z,26.37
2018-10-21T13:08:37.042Z,26.57
2018-10-21T13:11:05.303Z,28.43
2018-10-21T13:13:33.543Z,26.97
2018-10-21T13:16:01.781Z,26.67
2018-10-21T13:18:30.118Z,33.37
2018-10-21T13:20:58.367Z,26.33
2018-10-21T13:23:26.650Z,29.13
2018-10-21T13:25:55.189Z,29.70
2018-10-21T13:28:23.627Z,26.40
2018-10-21T13:30:51.726Z,29.13
2018-10-21T13:33:19.972Z,27.77
2018-10-21T13:35:48.315Z,25.57
2018-10-21T13:38:16.619Z,27.80
2018-10-21T13:40:44.906Z,27.17
2018-10-21T13:43:13.163Z,29.07
2018-10-21T13:45:41.566Z,32.23
2018-10-21T13:48:09.815Z,28.73
2018-10-21T13:50:38.194Z,29.60
2018-10-21T13:53:06.553Z,27.03
2018-10-21T13:55:34.793Z,26.30
2018-10-21T13:58:03.170Z,27.93
2018-10-21T14:00:31.444Z,24.57
2018-10-21T14:02:59.768Z,29.57
2018-10-21T14:05:28.050Z,29.47
2018-10-21T14:07:56.321Z,27.90
2018-10-21T14:10:24.636Z,28.50
2018-10-21T14:12:52.964Z,28.47
2018-10-21T14:15:21.242Z,32.57
2018-10-21T14:17:49.571Z,29.47
2018-10-21T14:20:17.802Z,29.13
2018-10-21T14:22:46.154Z,28.50
2018-10-21T14:25:14.558Z,26.60
2018-10-21T14:27:43.095Z,28.77
2018-10-21T14:30:11.471Z,32.00
2018-10-21T14:32:39.897Z,27.13
2018-10-21T14:35:09.524Z,26.07
2018-10-21T14:37:38.220Z,28.67
2018-10-21T14:40:08.678Z,34.60
2018-10-21T14:42:36.902Z,27.10
2018-10-21T14:45:06.719Z,28.47
2018-10-21T14:47:34.996Z,30.30
2018-10-21T14:50:03.274Z,26.73
2018-10-21T14:52:31.541Z,30.23
2018-10-21T14:54:59.891Z,30.53
2018-10-21T14:57:28.163Z,29.17
2018-10-21T14:59:56.431Z,26.40
2018-10-21T15:02:24.742Z,28.00
2018-10-21T15:04:52.998Z,28.57
2018-10-21T15:07:21.301Z,27.07
2018-10-21T15:09:49.758Z,29.33
2018-10-21T15:12:17.949Z,27.87
2018-10-21T15:14:46.225Z,24.10
2018-10-21T15:17:14.489Z,27.93
2018-10-21T15:19:42.883Z,28.17
2018-10-21T15:22:11.274Z,25.43
2018-10-21T15:24:39.520Z,28.50
2018-10-21T15:27:07.799Z,26.73
2018-10-21T15:29:36.104Z,24.33
2018-10-21T15:32:04.492Z,23.53
2018-10-21T15:34:32.720Z,28.57
2018-10-21T15:37:00.935Z,26.10
2018-10-21T15:39:29.327Z,27.33
2018-10-21T15:41:57.577Z,26.03
2018-10-21T15:44:25.822Z,34.33
2018-10-21T15:46:54.140Z,26.90
2018-10-21T15:49:22.406Z,32.23
2018-10-21T15:51:50.807Z,28.47
2018-10-21T15:54:19.099Z,29.60
2018-10-21T15:56:47.592Z,27.47
2018-10-21T15:59:15.929Z,30.67
2018-10-21T16:01:44.357Z,27.83
2018-10-21T16:04:13.538Z,31.97
2018-10-21T16:06:41.823Z,27.40
2018-10-21T16:09:11.975Z,26.60
2018-10-21T16:11:40.343Z,26.63
2018-10-21T16:14:08.841Z,27.20
2018-10-21T16:16:37.116Z,27.03
2018-10-21T16:19:05.494Z,25.30
2018-10-21T16:21:33.786Z,28.10
2018-10-21T16:24:02.058Z,25.60
2018-10-21T16:26:30.453Z,31.60
2018-10-21T16:28:58.838Z,26.30
2018-10-21T16:31:27.083Z,29.50
2018-10-21T16:33:55.350Z,29.60
2018-10-21T16:36:23.712Z,28.63
2018-10-21T16:38:52.055Z,27.43
2018-10-21T16:41:21.310Z,29.50
2018-10-21T16:43:49.589Z,31.23
2018-10-21T16:46:17.854Z,29.75
2018-10-21T16:48:46.154Z,31.80
2018-10-21T16:51:14.572Z,32.10
2018-10-21T16:53:42.767Z,29.07
2018-10-21T16:56:11.161Z,30.80
2018-10-21T16:58:39.562Z,31.40
2018-10-21T17:01:08.110Z,32.73
2018-10-21T17:03:36.284Z,33.40
2018-10-21T17:06:04.633Z,31.57
2018-10-21T17:08:33.318Z,33.50
2018-10-21T17:11:01.642Z,32.15
2018-10-21T17:13:29.959Z,36.28
2018-10-21T17:15:58.315Z,33.10
2018-10-21T17:18:26.586Z,35.08
2018-10-21T17:20:54.876Z,39.85
2018-10-21T17:23:23.226Z,33.48
2018-10-21T17:25:51.502Z,36.75
2018-10-21T17:28:19.911Z,33.15
2018-10-21T17:30:48.123Z,39.48
2018-10-21T17:33:16.397Z,37.85
2018-10-21T17:35:44.717Z,38.13
2018-10-21T17:38:13.079Z,36.50
2018-10-21T17:40:41.438Z,44.05
2018-10-21T17:43:09.726Z,38.63
2018-10-21T17:45:37.922Z,38.78
2018-10-21T17:48:06.170Z,40.58
2018-10-21T17:50:34.419Z,40.95
2018-10-21T17:53:02.674Z,44.77
2018-10-21T17:55:30.978Z,37.03
2018-10-21T17:57:59.377Z,42.17
2018-10-21T18:00:27.682Z,41.13
2018-10-21T18:02:55.963Z,54.95
2018-10-21T18:05:25.271Z,45.58
2018-10-21T18:07:53.525Z,43.38
2018-10-21T18:10:21.865Z,47.75
2018-10-21T18:12:50.157Z,43.95
2018-10-21T18:15:18.553Z,45.43
2018-10-21T18:17:46.878Z,53.28
2018-10-21T18:20:15.262Z,42.98
2018-10-21T18:22:43.538Z,44.15
2018-10-21T18:25:11.930Z,43.08
2018-10-21T18:27:40.662Z,43.92
2018-10-21T18:30:10.214Z,42.62
2018-10-21T18:32:38.535Z,48.87
2018-10-21T18:35:08.170Z,45.95
2018-10-21T18:37:36.533Z,62.13
2018-10-21T18:40:05.916Z,49.95
2018-10-21T18:42:34.098Z,47.38
2018-10-21T18:45:02.330Z,51.98
2018-10-21T18:47:30.658Z,48.10
2018-10-21T18:49:58.940Z,47.38
2018-10-21T18:52:27.193Z,44.18
2018-10-21T18:54:55.480Z,45.00
2018-10-21T18:57:23.733Z,44.67
2018-10-21T18:59:52.060Z,43.42
2018-10-21T19:02:20.293Z,43.50
2018-10-21T19:04:48.659Z,44.08
2018-10-21T19:07:17.147Z,53.40
2018-10-21T19:09:45.391Z,49.55
2018-10-21T19:12:13.682Z,50.20
2018-10-21T19:14:42.006Z,42.65
2018-10-21T19:17:10.330Z,43.55
2018-10-21T19:19:38.686Z,40.55
2018-10-21T19:22:06.969Z,47.03
2018-10-21T19:24:35.398Z,41.80
2018-10-21T19:27:03.759Z,48.25
2018-10-21T19:29:32.021Z,46.42
2018-10-21T19:32:00.282Z,46.33
2018-10-21T19:34:28.696Z,45.73
2018-10-21T19:36:56.959Z,44.42
2018-10-21T19:39:25.210Z,47.48
2018-10-21T19:41:53.787Z,43.33
2018-10-21T19:44:22.734Z,45.28
2018-10-21T19:46:51.023Z,45.73
2018-10-21T19:49:19.294Z,45.23
2018-10-21T19:51:47.657Z,41.92
2018-10-21T19:54:15.940Z,47.25
2018-10-21T19:56:44.320Z,45.88
2018-10-21T19:59:12.558Z,47.23
2018-10-21T20:01:40.928Z,49.55
2018-10-21T20:04:09.343Z,54.48
2018-10-21T20:06:37.524Z,58.00
2018-10-21T20:09:08.719Z,53.17
2018-10-21T20:11:37.569Z,48.38
2018-10-21T20:14:05.957Z,46.73
2018-10-21T20:16:34.279Z,42.43
2018-10-21T20:19:02.675Z,44.03
2018-10-21T20:21:30.873Z,44.83
2018-10-21T20:23:59.340Z,46.68
2018-10-21T20:26:27.690Z,38.00
2018-10-21T20:28:56.054Z,41.60
2018-10-21T20:31:24.453Z,39.60
2018-10-21T20:33:52.860Z,39.18
2018-10-21T20:36:21.025Z,42.55
2018-10-21T20:38:49.390Z,39.27
2018-10-21T20:41:17.683Z,37.93
2018-10-21T20:43:46.532Z,39.18
2018-10-21T20:46:14.922Z,39.42
2018-10-21T20:48:43.142Z,41.48
2018-10-21T20:51:11.491Z,43.73
2018-10-21T20:53:40.865Z,41.08
2018-10-21T20:56:09.127Z,39.65
2018-10-21T20:58:37.438Z,40.35
2018-10-21T21:01:06.273Z,44.60
2018-10-21T21:03:34.553Z,43.17
2018-10-21T21:06:02.852Z,44.10
2018-10-21T21:08:31.066Z,42.88
2018-10-21T21:10:59.341Z,43.98
2018-10-21T21:13:36.283Z,44.03
2018-10-21T21:16:05.076Z,50.92
2018-10-21T21:18:33.330Z,43.02
2018-10-21T21:21:01.600Z,42.03
2018-10-21T21:23:29.834Z,44.40
2018-10-21T21:25:58.114Z,46.58
2018-10-21T21:28:26.366Z,46.90
2018-10-21T21:30:54.662Z,44.95
2018-10-21T21:33:22.965Z,47.10
2018-10-21T21:35:58.289Z,43.10
2018-10-21T21:38:26.523Z,44.42
2018-10-21T21:40:54.750Z,42.03
2018-10-21T21:43:23.087Z,42.35
2018-10-21T21:45:51.362Z,47.30
2018-10-21T21:48:19.687Z,46.10
2018-10-21T21:50:47.996Z,42.17
2018-10-21T21:53:16.222Z,43.52
2018-10-21T21:55:44.545Z,45.60
2018-10-21T21:58:12.896Z,52.20
2018-10-21T22:00:41.123Z,46.13
2018-10-21T22:03:09.342Z,45.78
2018-10-21T22:05:37.573Z,43.10
2018-10-21T22:08:05.894Z,45.35
2018-10-21T22:10:34.174Z,45.45
2018-10-21T22:13:02.430Z,43.42
2018-10-21T22:15:30.701Z,46.25
2018-10-21T22:17:59.000Z,46.65
2018-10-21T22:20:27.273Z,45.50
2018-10-21T22:22:55.528Z,48.08
2018-10-21T22:25:23.805Z,53.33
2018-10-21T22:27:52.049Z,47.98
2018-10-21T22:30:20.272Z,49.15
2018-10-21T22:32:48.636Z,47.08
2018-10-21T22:35:16.910Z,50.65
2018-10-21T22:37:45.443Z,51.42
2018-10-21T22:40:13.762Z,47.38
2018-10-21T22:42:41.982Z,48.92
2018-10-21T22:45:10.653Z,45.88
2018-10-21T22:47:39.006Z,49.18
2018-10-21T22:50:08.933Z,47.50
2018-10-21T22:52:37.237Z,47.40
2018-10-21T22:55:06.082Z,50.00
2018-10-21T22:57:34.374Z,46.45
2018-10-21T23:00:02.685Z,47.27
2018-10-21T23:02:30.902Z,47.48
2018-10-21T23:04:59.206Z,49.98
2018-10-21T23:07:27.426Z,51.30
2018-10-21T23:09:55.747Z,49.00
2018-10-21T23:12:23.953Z,48.92
2018-10-21T23:14:52.594Z,48.60
2018-10-21T23:17:20.894Z,53.35
2018-10-21T23:19:50.171Z,47.93
2018-10-21T23:22:18.504Z,52.00
2018-10-21T23:24:46.697Z,46.00
2018-10-21T23:27:15.019Z,47.23
2018-10-21T23:29:43.882Z,46.80
2018-10-21T23:32:12.262Z,44.90
2018-10-21T23:34:40.560Z,48.17
2018-10-21T23:37:08.893Z,45.30
2018-10-21T23:39:37.218Z,50.52
2018-10-21T23:42:05.748Z,48.10
2018-10-21T23:44:34.032Z,47.98
2018-10-21T23:47:02.346Z,50.10
2018-10-21T23:49:30.625Z,47.58
2018-10-21T23:51:58.961Z,44.70
2018-10-21T23:54:27.180Z,46.92
2018-10-21T23:56:55.491Z,47.95
2018-10-21T23:59:23.782Z,50.25
